This is the latest recevied weather packets stored in our database for station/object KB9HUO. If no packets are shown the sender has not sent any weather packets the latest 1 day(s).
| Time | Temp. | Humidity | Pressure | Rain* | Wind** | Luminosity | Snow |
|---|---|---|---|---|---|---|---|
| 1777995352 | 17.22° C | 77% | 1009.7 hPa | 0 mm | 1.34 m/s, 234° | 74 W/m² | - |
| 1777995049 | 17.22° C | 78% | 1009.6 hPa | 0 mm | 0.89 m/s, 230° | 95 W/m² | - |
| 1777994746 | 17.22° C | 78% | 1009.6 hPa | 0 mm | 0.89 m/s, 230° | 78 W/m² | - |
| 1777994441 | 17.22° C | 78% | 1009.5 hPa | 0 mm | 1.34 m/s, 228° | 102 W/m² | - |
| 1777994136 | 17.22° C | 78% | 1009.3 hPa | 0 mm | 1.34 m/s, 227° | 113 W/m² | - |
| 1777993834 | 17.22° C | 78% | 1009.7 hPa | 0 mm | 1.79 m/s, 227° | 92 W/m² | - |
| 1777993530 | 16.67° C | 78% | 1009.6 hPa | 0 mm | 0.89 m/s, 227° | 86 W/m² | - |
| 1777993227 | 16.67° C | 79% | 1009.5 hPa | 0 mm | 0.89 m/s, 224° | 104 W/m² | - |
| 1777992923 | 16.67° C | 79% | 1009.5 hPa | 0 mm | 1.79 m/s, 191° | 95 W/m² | - |
| 1777992621 | 16.67° C | 79% | 1009.5 hPa | 0 mm | 2.68 m/s, 199° | 80 W/m² | - |
| 1777992319 | 16.67° C | 79% | 1009.6 hPa | 0 mm | 2.24 m/s, 199° | 112 W/m² | - |
| 1777992016 | 16.67° C | 81% | 1009.5 hPa | 0 mm | 1.34 m/s, 225° | 109 W/m² | - |
| 1777991714 | 16.67° C | 81% | 1009.5 hPa | 0 mm | 1.34 m/s, 226° | 119 W/m² | - |
| 1777991410 | 16.67° C | 81% | 1009.2 hPa | 0 mm | 1.34 m/s, 223° | 120 W/m² | - |
| 1777991108 | 16.67° C | 82% | 1009.2 hPa | 0 mm | 1.34 m/s, 219° | 112 W/m² | - |
| 1777990805 | 16.11° C | 82% | 1009.1 hPa | 0 mm | 1.34 m/s, 233° | 111 W/m² | - |
| 1777990502 | 16.11° C | 83% | 1009.1 hPa | 0 mm | 1.79 m/s, 185° | 114 W/m² | - |
| 1777990199 | 16.11° C | 84% | 1009.1 hPa | 0 mm | 2.68 m/s, 177° | 118 W/m² | - |
| 1777989895 | 16.11° C | 84% | 1009.2 hPa | 0 mm | 1.34 m/s, 211° | 127 W/m² | - |
| 1777989592 | 16.11° C | 84% | 1009.1 hPa | 0 mm | 1.79 m/s, 184° | 115 W/m² | - |
| 1777989289 | 16.11° C | 84% | 1009.2 hPa | 0 mm | 2.24 m/s, 209° | 87 W/m² | - |
| 1777988985 | 16.11° C | 85% | 1009.1 hPa | 0 mm | 1.34 m/s, 214° | 95 W/m² | - |
| 1777988682 | 15.56° C | 86% | 1009.3 hPa | 0 mm | 1.79 m/s, 191° | 97 W/m² | - |
| 1777988378 | 15.56° C | 87% | 1008.9 hPa | 0 mm | 0.89 m/s, 191° | 103 W/m² | - |
| 1777988076 | 15.56° C | 88% | 1009.2 hPa | 0 mm | 1.34 m/s, 189° | 98 W/m² | - |
* Rain latest hour (hover to see other rain measurements)
** Current wind speed in m/s (hover to see current wind gust speed)